Time,TemperatureF,DewpointF,PressureIn,WindDirection,WindDirectionDegrees,WindSpeedMPH,WindSpeedGustMPH,Humidity,HourlyPrecipIn,Conditions,Clouds,dailyrainin,SoftwareType,DateUTC
2013-02-17 00:02:00,23.0,14.0,-100.00,SW,215,4.0,4.0,68,-99.99,,,-99.99,,2013-02-17 06:02:00,
2013-02-17 00:11:00,23.0,15.0,-100.00,SSW,200,2.0,3.0,71,-99.99,,,-99.99,,2013-02-17 06:11:00,
2013-02-17 00:21:00,23.0,15.0,-100.00,SSW,200,2.0,3.0,71,-99.99,,,-99.99,,2013-02-17 06:21:00,
2013-02-17 00:42:00,22.0,15.0,-100.00,SW,220,1.0,1.0,75,-99.99,,,-99.99,,2013-02-17 06:42:00,
2013-02-17 00:52:00,22.0,16.0,-100.00,SE,135,0.0,0.0,77,-99.99,,,-99.99,,2013-02-17 06:52:00,
2013-02-17 01:01:00,22.0,16.0,-100.00,SE,135,0.0,0.0,77,-99.99,,,-99.99,,2013-02-17 07:01:00,
2013-02-17 01:11:00,21.0,16.0,-100.00,North,0,1.0,1.0,78,-99.99,,,-99.99,,2013-02-17 07:11:00,
2013-02-17 01:21:00,21.0,15.0,-100.00,NNW,335,0.0,0.0,79,-99.99,,,-99.99,,2013-02-17 07:21:00,
2013-02-17 01:31:00,21.0,15.0,-100.00,NNW,335,0.0,0.0,79,-99.99,,,-99.99,,2013-02-17 07:31:00,
2013-02-17 01:41:00,21.0,16.0,-100.00,SW,225,0.0,0.0,80,-99.99,,,-99.99,,2013-02-17 07:41:00,
2013-02-17 01:52:00,20.0,15.0,-100.00,WSW,245,0.0,0.0,80,-99.99,,,-99.99,,2013-02-17 07:52:00,
2013-02-17 02:01:00,20.0,15.0,-100.00,WSW,245,0.0,0.0,80,-99.99,,,-99.99,,2013-02-17 08:01:00,
2013-02-17 02:11:00,20.0,15.0,-100.00,SSW,210,0.0,0.0,80,-99.99,,,-99.99,,2013-02-17 08:11:00,
2013-02-17 02:21:00,20.0,15.0,-100.00,NW,325,0.0,1.0,81,-99.99,,,-99.99,,2013-02-17 08:21:00,
2013-02-17 02:31:00,20.0,15.0,-100.00,NW,325,0.0,1.0,81,-99.99,,,-99.99,,2013-02-17 08:31:00,
2013-02-17 02:42:00,20.0,15.0,-100.00,South,190,0.0,0.0,82,-99.99,,,-99.99,,2013-02-17 08:42:00,
2013-02-17 02:52:00,20.0,15.0,-100.00,South,175,0.0,0.0,83,-99.99,,,-99.99,,2013-02-17 08:52:00,
2013-02-17 03:02:00,20.0,15.0,-100.00,South,175,0.0,0.0,83,-99.99,,,-99.99,,2013-02-17 09:02:00,
2013-02-17 03:11:00,19.0,15.0,-100.00,North,0,0.0,0.0,84,-99.99,,,-99.99,,2013-02-17 09:11:00,
2013-02-17 03:21:00,19.0,15.0,-100.00,NNE,30,0.0,0.0,85,-99.99,,,-99.99,,2013-02-17 09:21:00,
2013-02-17 03:31:00,19.0,15.0,-100.00,NNE,30,0.0,0.0,85,-99.99,,,-99.99,,2013-02-17 09:31:00,
2013-02-17 03:42:00,19.0,15.0,-100.00,NNE,30,0.0,0.0,85,-99.99,,,-99.99,,2013-02-17 09:42:00,
2013-02-17 03:52:00,19.0,15.0,-100.00,NE,40,0.0,0.0,87,-99.99,,,-99.99,,2013-02-17 09:52:00,
2013-02-17 04:01:00,19.0,15.0,-100.00,NE,40,0.0,0.0,87,-99.99,,,-99.99,,2013-02-17 10:01:00,
2013-02-17 04:11:00,18.0,16.0,-100.00,NNE,30,1.0,1.0,88,-99.99,,,-99.99,,2013-02-17 10:11:00,
2013-02-17 04:21:00,18.0,16.0,-100.00,NE,35,1.0,2.0,89,-99.99,,,-99.99,,2013-02-17 10:21:00,
2013-02-17 04:31:00,18.0,16.0,-100.00,NE,35,1.0,2.0,89,-99.99,,,-99.99,,2013-02-17 10:31:00,
2013-02-17 04:41:00,19.0,16.0,-100.00,NE,45,0.0,0.0,90,-99.99,,,-99.99,,2013-02-17 10:41:00,
2013-02-17 04:52:00,18.0,16.0,-100.00,NE,35,1.0,1.0,90,-99.99,,,-99.99,,2013-02-17 10:52:00,
2013-02-17 05:01:00,18.0,16.0,-100.00,NE,35,1.0,1.0,90,-99.99,,,-99.99,,2013-02-17 11:01:00,
2013-02-17 05:11:00,19.0,17.0,-100.00,NE,55,4.0,4.0,91,-99.99,,,-99.99,,2013-02-17 11:11:00,
2013-02-17 05:21:00,19.0,17.0,-100.00,NE,45,3.0,3.0,91,-99.99,,,-99.99,,2013-02-17 11:21:00,
2013-02-17 05:32:00,19.0,17.0,-100.00,NE,45,3.0,3.0,91,-99.99,,,-99.99,,2013-02-17 11:32:00,
2013-02-17 05:42:00,19.0,16.0,-100.00,NE,55,0.0,0.0,91,-99.99,,,-99.99,,2013-02-17 11:42:00,
2013-02-17 05:52:00,19.0,17.0,-100.00,ENE,75,2.0,2.0,92,-99.99,,,-99.99,,2013-02-17 11:52:00,
2013-02-17 06:03:00,19.0,17.0,-100.00,ENE,75,2.0,2.0,92,-99.99,,,-99.99,,2013-02-17 12:03:00,
2013-02-17 06:11:00,19.0,17.0,-100.00,ENE,60,3.0,3.0,92,-99.99,,,-99.99,,2013-02-17 12:11:00,
2013-02-17 06:22:00,19.0,17.0,-100.00,NE,50,6.0,6.0,92,-99.99,,,-99.99,,2013-02-17 12:22:00,
2013-02-17 06:32:00,19.0,17.0,-100.00,NE,50,6.0,6.0,92,-99.99,,,-99.99,,2013-02-17 12:32:00,
2013-02-17 06:42:00,19.0,17.0,-100.00,ENE,75,3.0,3.0,92,-99.99,,,-99.99,,2013-02-17 12:42:00,
2013-02-17 06:52:00,19.0,17.0,-100.00,ENE,70,6.0,6.0,92,-99.99,,,-99.99,,2013-02-17 12:52:00,
2013-02-17 07:02:00,19.0,17.0,-100.00,ENE,70,6.0,6.0,92,-99.99,,,-99.99,,2013-02-17 13:02:00,
2013-02-17 07:12:00,19.0,17.0,-100.00,ENE,65,4.0,6.0,92,-99.99,,,-99.99,,2013-02-17 13:12:00,
2013-02-17 07:22:00,19.0,18.0,-100.00,East,80,4.0,6.0,92,-99.99,,,-99.99,,2013-02-17 13:22:00,
2013-02-17 07:32:00,19.0,18.0,-100.00,East,80,4.0,6.0,92,-99.99,,,-99.99,,2013-02-17 13:32:00,
2013-02-17 07:41:00,19.0,18.0,-100.00,East,80,4.0,6.0,92,-99.99,,,-99.99,,2013-02-17 13:41:00,
2013-02-17 07:52:00,21.0,19.0,-100.00,East,95,4.0,6.0,92,-99.99,,,-99.99,,2013-02-17 13:52:00,
2013-02-17 08:01:00,21.0,19.0,-100.00,East,95,4.0,6.0,92,-99.99,,,-99.99,,2013-02-17 14:01:00,
2013-02-17 08:11:00,22.0,20.0,-100.00,ENE,75,6.0,6.0,91,-99.99,,,-99.99,,2013-02-17 14:11:00,
2013-02-17 08:21:00,23.0,20.0,-100.00,East,95,8.0,9.0,89,-99.99,,,-99.99,,2013-02-17 14:21:00,
2013-02-17 08:32:00,23.0,20.0,-100.00,East,95,8.0,9.0,89,-99.99,,,-99.99,,2013-02-17 14:32:00,
2013-02-17 08:42:00,24.0,20.0,-100.00,East,95,9.0,11.0,86,-99.99,,,-99.99,,2013-02-17 14:42:00,
2013-02-17 08:53:00,25.0,20.0,-100.00,ESE,115,8.0,9.0,83,-99.99,,,-99.99,,2013-02-17 14:53:00,
2013-02-17 09:02:00,25.0,20.0,-100.00,ESE,115,8.0,9.0,83,-99.99,,,-99.99,,2013-02-17 15:02:00,
2013-02-17 09:11:00,27.0,21.0,-100.00,East,90,9.0,11.0,81,-99.99,,,-99.99,,2013-02-17 15:11:00,
2013-02-17 09:21:00,27.0,20.0,-100.00,ESE,110,10.0,11.0,76,-99.99,,,-99.99,,2013-02-17 15:21:00,
2013-02-17 09:32:00,27.0,20.0,-100.00,ESE,110,10.0,11.0,76,-99.99,,,-99.99,,2013-02-17 15:32:00,
2013-02-17 09:42:00,28.0,21.0,-100.00,East,95,9.0,11.0,74,-99.99,,,-99.99,,2013-02-17 15:42:00,
2013-02-17 09:52:00,29.0,20.0,-100.00,ESE,115,9.0,10.0,71,-99.99,,,-99.99,,2013-02-17 15:52:00,
2013-02-17 10:01:00,29.0,20.0,-100.00,ESE,115,9.0,10.0,71,-99.99,,,-99.99,,2013-02-17 16:01:00,
2013-02-17 10:11:00,31.0,21.0,-100.00,ESE,120,8.0,10.0,67,-99.99,,,-99.99,,2013-02-17 16:11:00,
2013-02-17 10:21:00,31.0,20.0,-100.00,East,95,6.0,9.0,65,-99.99,,,-99.99,,2013-02-17 16:21:00,
2013-02-17 10:32:00,31.0,20.0,-100.00,East,95,6.0,9.0,65,-99.99,,,-99.99,,2013-02-17 16:32:00,
2013-02-17 10:42:00,31.0,20.0,-100.00,ESE,105,8.0,10.0,63,-99.99,,,-99.99,,2013-02-17 16:42:00,
2013-02-17 10:52:00,32.0,20.0,-100.00,ESE,120,10.0,12.0,61,-99.99,,,-99.99,,2013-02-17 16:52:00,
2013-02-17 11:02:00,32.0,20.0,-100.00,ESE,120,10.0,12.0,61,-99.99,,,-99.99,,2013-02-17 17:02:00,
2013-02-17 11:11:00,33.0,20.0,-100.00,ESE,110,10.0,12.0,59,-99.99,,,-99.99,,2013-02-17 17:11:00,
2013-02-17 11:21:00,33.0,20.0,-100.00,SE,125,10.0,12.0,58,-99.99,,,-99.99,,2013-02-17 17:21:00,
2013-02-17 11:32:00,33.0,20.0,-100.00,SE,125,10.0,12.0,58,-99.99,,,-99.99,,2013-02-17 17:32:00,
2013-02-17 11:42:00,34.0,20.0,-100.00,SSE,150,6.0,10.0,56,-99.99,,,-99.99,,2013-02-17 17:42:00,
2013-02-17 11:52:00,35.0,20.0,-100.00,ESE,105,6.0,9.0,54,-99.99,,,-99.99,,2013-02-17 17:52:00,
2013-02-17 12:02:00,35.0,20.0,-100.00,ESE,105,6.0,9.0,54,-99.99,,,-99.99,,2013-02-17 18:02:00,
2013-02-17 12:11:00,36.0,20.0,-100.00,ESE,105,10.0,14.0,51,-99.99,,,-99.99,,2013-02-17 18:11:00,
2013-02-17 12:22:00,36.0,19.0,-100.00,ESE,115,4.0,8.0,50,-99.99,,,-99.99,,2013-02-17 18:22:00,
2013-02-17 12:33:00,36.0,19.0,-100.00,ESE,115,4.0,8.0,50,-99.99,,,-99.99,,2013-02-17 18:33:00,
2013-02-17 12:42:00,37.0,19.0,-100.00,SE,125,11.0,14.0,47,-99.99,,,-99.99,,2013-02-17 18:42:00,
2013-02-17 12:52:00,38.0,19.0,-100.00,SE,125,10.0,16.0,46,-99.99,,,-99.99,,2013-02-17 18:52:00,
2013-02-17 13:01:00,38.0,19.0,-100.00,SE,125,10.0,16.0,46,-99.99,,,-99.99,,2013-02-17 19:01:00,
2013-02-17 13:11:00,38.0,19.0,-100.00,South,170,9.0,14.0,45,-99.99,,,-99.99,,2013-02-17 19:11:00,
2013-02-17 13:21:00,38.0,19.0,-100.00,SSE,150,12.0,14.0,45,-99.99,,,-99.99,,2013-02-17 19:21:00,
2013-02-17 13:32:00,38.0,19.0,-100.00,SSE,150,12.0,14.0,45,-99.99,,,-99.99,,2013-02-17 19:32:00,
2013-02-17 13:42:00,40.0,19.0,-100.00,SSE,155,12.0,16.0,43,-99.99,,,-99.99,,2013-02-17 19:42:00,
2013-02-17 13:52:00,40.0,19.0,-100.00,SE,135,12.0,17.0,42,-99.99,,,-99.99,,2013-02-17 19:52:00,
2013-02-17 14:02:00,40.0,19.0,-100.00,SE,135,12.0,17.0,42,-99.99,,,-99.99,,2013-02-17 20:02:00,
2013-02-17 14:11:00,41.0,19.0,-100.00,SSE,150,10.0,12.0,42,-99.99,,,-99.99,,2013-02-17 20:11:00,
2013-02-17 14:21:00,40.0,19.0,-100.00,ESE,120,12.0,14.0,42,-99.99,,,-99.99,,2013-02-17 20:21:00,
2013-02-17 14:32:00,40.0,19.0,-100.00,ESE,120,12.0,14.0,42,-99.99,,,-99.99,,2013-02-17 20:32:00,
2013-02-17 14:42:00,41.0,18.0,-100.00,SSE,160,14.0,17.0,39,-99.99,,,-99.99,,2013-02-17 20:42:00,
2013-02-17 14:52:00,42.0,19.0,-100.00,SE,130,11.0,14.0,39,-99.99,,,-99.99,,2013-02-17 20:52:00,
2013-02-17 15:02:00,42.0,19.0,-100.00,SE,130,11.0,14.0,39,-99.99,,,-99.99,,2013-02-17 21:02:00,
2013-02-17 15:11:00,41.0,18.0,-100.00,SSE,150,10.0,16.0,38,-99.99,,,-99.99,,2013-02-17 21:11:00,
2013-02-17 15:21:00,42.0,18.0,-100.00,ESE,115,10.0,11.0,37,-99.99,,,-99.99,,2013-02-17 21:21:00,
2013-02-17 15:32:00,42.0,18.0,-100.00,ESE,115,10.0,11.0,37,-99.99,,,-99.99,,2013-02-17 21:32:00,
2013-02-17 15:42:00,42.0,18.0,-100.00,SE,130,11.0,14.0,37,-99.99,,,-99.99,,2013-02-17 21:42:00,
2013-02-17 15:53:00,42.0,18.0,-100.00,ESE,110,10.0,12.0,37,-99.99,,,-99.99,,2013-02-17 21:53:00,
2013-02-17 16:01:00,42.0,18.0,-100.00,ESE,110,10.0,12.0,37,-99.99,,,-99.99,,2013-02-17 22:01:00,
2013-02-17 16:12:00,43.0,18.0,-100.00,SE,125,12.0,16.0,37,-99.99,,,-99.99,,2013-02-17 22:12:00,
2013-02-17 16:22:00,43.0,18.0,-100.00,ESE,110,12.0,16.0,37,-99.99,,,-99.99,,2013-02-17 22:22:00,
2013-02-17 16:32:00,43.0,18.0,-100.00,ESE,110,12.0,16.0,37,-99.99,,,-99.99,,2013-02-17 22:32:00,
2013-02-17 16:42:00,43.0,18.0,-100.00,SE,145,8.0,10.0,36,-99.99,,,-99.99,,2013-02-17 22:42:00,
2013-02-17 16:52:00,42.0,17.0,-100.00,SSE,155,14.0,18.0,35,-99.99,,,-99.99,,2013-02-17 22:52:00,
2013-02-17 17:02:00,42.0,17.0,-100.00,SSE,155,14.0,18.0,35,-99.99,,,-99.99,,2013-02-17 23:02:00,
2013-02-17 17:11:00,42.0,17.0,-100.00,SE,125,14.0,18.0,36,-99.99,,,-99.99,,2013-02-17 23:11:00,
2013-02-17 17:21:00,42.0,17.0,-100.00,SE,135,12.0,14.0,36,-99.99,,,-99.99,,2013-02-17 23:21:00,
2013-02-17 17:32:00,42.0,17.0,-100.00,SE,135,12.0,14.0,36,-99.99,,,-99.99,,2013-02-17 23:32:00,
2013-02-17 17:42:00,42.0,17.0,-100.00,SE,135,12.0,14.0,36,-99.99,,,-99.99,,2013-02-17 23:42:00,
2013-02-17 17:52:00,41.0,17.0,-100.00,SE,130,10.0,14.0,38,-99.99,,,-99.99,,2013-02-17 23:52:00,
2013-02-17 18:01:00,41.0,17.0,-100.00,SE,130,10.0,14.0,38,-99.99,,,-99.99,,2013-02-18 00:01:00,
2013-02-17 18:11:00,40.0,17.0,-100.00,ESE,120,6.0,9.0,39,-99.99,,,-99.99,,2013-02-18 00:11:00,
2013-02-17 18:22:00,40.0,17.0,-100.00,ESE,115,6.0,9.0,40,-99.99,,,-99.99,,2013-02-18 00:22:00,
2013-02-17 18:32:00,40.0,17.0,-100.00,ESE,115,6.0,9.0,40,-99.99,,,-99.99,,2013-02-18 00:32:00,
2013-02-17 18:41:00,39.0,17.0,-100.00,ESE,110,9.0,12.0,41,-99.99,,,-99.99,,2013-02-18 00:41:00,
2013-02-17 18:52:00,39.0,18.0,-100.00,ESE,115,10.0,12.0,42,-99.99,,,-99.99,,2013-02-18 00:52:00,
2013-02-17 19:01:00,39.0,18.0,-100.00,ESE,115,10.0,12.0,42,-99.99,,,-99.99,,2013-02-18 01:01:00,
2013-02-17 19:12:00,38.0,17.0,-100.00,ESE,105,10.0,14.0,43,-99.99,,,-99.99,,2013-02-18 01:12:00,
2013-02-17 19:21:00,38.0,18.0,-100.00,ESE,105,8.0,10.0,45,-99.99,,,-99.99,,2013-02-18 01:21:00,
2013-02-17 19:32:00,38.0,18.0,-100.00,ESE,105,8.0,10.0,45,-99.99,,,-99.99,,2013-02-18 01:32:00,
2013-02-17 19:41:00,38.0,18.0,-100.00,ESE,105,8.0,10.0,45,-99.99,,,-99.99,,2013-02-18 01:41:00,
2013-02-17 19:52:00,37.0,18.0,-100.00,ESE,110,10.0,12.0,46,-99.99,,,-99.99,,2013-02-18 01:52:00,
2013-02-17 20:01:00,37.0,18.0,-100.00,ESE,110,10.0,12.0,46,-99.99,,,-99.99,,2013-02-18 02:01:00,
2013-02-17 20:11:00,37.0,18.0,-100.00,ESE,115,9.0,12.0,46,-99.99,,,-99.99,,2013-02-18 02:11:00,
2013-02-17 20:21:00,37.0,18.0,-100.00,ESE,120,10.0,12.0,47,-99.99,,,-99.99,,2013-02-18 02:21:00,
2013-02-17 20:32:00,37.0,18.0,-100.00,ESE,120,10.0,12.0,47,-99.99,,,-99.99,,2013-02-18 02:32:00,
2013-02-17 20:41:00,36.0,19.0,-100.00,ESE,120,9.0,11.0,49,-99.99,,,-99.99,,2013-02-18 02:41:00,
2013-02-17 20:52:00,36.0,20.0,-100.00,ESE,120,6.0,9.0,50,-99.99,,,-99.99,,2013-02-18 02:52:00,
2013-02-17 21:01:00,36.0,20.0,-100.00,ESE,120,6.0,9.0,50,-99.99,,,-99.99,,2013-02-18 03:01:00,
2013-02-17 21:11:00,36.0,19.0,-100.00,SE,130,9.0,12.0,50,-99.99,,,-99.99,,2013-02-18 03:11:00,
2013-02-17 21:21:00,36.0,20.0,-100.00,ESE,120,9.0,10.0,51,-99.99,,,-99.99,,2013-02-18 03:21:00,
2013-02-17 21:32:00,36.0,20.0,-100.00,ESE,120,9.0,10.0,51,-99.99,,,-99.99,,2013-02-18 03:32:00,
2013-02-17 21:42:00,36.0,20.0,-100.00,SE,135,8.0,9.0,52,-99.99,,,-99.99,,2013-02-18 03:42:00,
2013-02-17 21:52:00,36.0,20.0,-100.00,SE,125,6.0,8.0,52,-99.99,,,-99.99,,2013-02-18 03:52:00,
2013-02-17 22:01:00,36.0,20.0,-100.00,SE,125,6.0,8.0,52,-99.99,,,-99.99,,2013-02-18 04:01:00,
2013-02-17 22:11:00,36.0,20.0,-100.00,ESE,120,6.0,9.0,53,-99.99,,,-99.99,,2013-02-18 04:11:00,
2013-02-17 22:21:00,36.0,21.0,-100.00,SE,135,9.0,14.0,54,-99.99,,,-99.99,,2013-02-18 04:21:00,
2013-02-17 22:32:00,36.0,21.0,-100.00,SE,135,9.0,14.0,54,-99.99,,,-99.99,,2013-02-18 04:32:00,
2013-02-17 22:42:00,36.0,21.0,-100.00,SE,135,8.0,10.0,54,-99.99,,,-99.99,,2013-02-18 04:42:00,
2013-02-17 22:52:00,36.0,21.0,-100.00,SE,125,9.0,12.0,53,-99.99,,,-99.99,,2013-02-18 04:52:00,
2013-02-17 23:02:00,36.0,21.0,-100.00,SE,125,9.0,12.0,53,-99.99,,,-99.99,,2013-02-18 05:02:00,
2013-02-17 23:11:00,36.0,21.0,-100.00,SE,125,9.0,10.0,53,-99.99,,,-99.99,,2013-02-18 05:11:00,
2013-02-17 23:21:00,36.0,21.0,-100.00,ESE,115,8.0,10.0,53,-99.99,,,-99.99,,2013-02-18 05:21:00,
2013-02-17 23:30:00,36.0,21.0,-100.00,SE,130,11.0,14.0,54,-99.99,,,-99.99,,2013-02-18 05:30:00,
2013-02-17 23:31:00,36.0,21.0,-100.00,ESE,115,8.0,10.0,53,-99.99,,,-99.99,,2013-02-18 05:31:00,
2013-02-17 23:41:00,36.0,21.0,-100.00,ESE,120,9.0,10.0,54,-99.99,,,-99.99,,2013-02-18 05:41:00,
2013-02-17 23:52:00,36.0,21.0,-100.00,ESE,120,9.0,12.0,54,-99.99,,,-99.99,,2013-02-18 05:52:00,